createdAt,value
2018-01-10T00:02:04.705Z,2.90
2018-01-10T00:04:34.410Z,2.90
2018-01-10T00:07:01.348Z,2.90
2018-01-10T00:09:28.316Z,2.90
2018-01-10T00:11:55.248Z,2.90
2018-01-10T00:14:22.195Z,3.00
2018-01-10T00:16:49.142Z,3.00
2018-01-10T00:19:16.104Z,3.00
2018-01-10T00:21:43.049Z,3.00
2018-01-10T00:24:10.013Z,3.00
2018-01-10T00:26:37.727Z,2.90
2018-01-10T00:29:04.680Z,2.80
2018-01-10T00:31:31.633Z,2.90
2018-01-10T00:33:58.606Z,2.90
2018-01-10T00:36:27.533Z,2.70
2018-01-10T00:38:54.571Z,2.70
2018-01-10T00:41:21.521Z,2.70
2018-01-10T00:43:48.490Z,2.70
2018-01-10T00:46:15.424Z,2.70
2018-01-10T00:48:43.309Z,2.90
2018-01-10T00:51:10.260Z,3.00
2018-01-10T00:53:37.242Z,2.90
2018-01-10T00:56:04.964Z,2.70
2018-01-10T00:58:31.908Z,2.80
2018-01-10T01:00:58.863Z,2.70
2018-01-10T01:03:25.836Z,2.70
2018-01-10T01:05:53.545Z,2.60
2018-01-10T01:08:20.508Z,2.60
2018-01-10T01:10:47.445Z,2.70
2018-01-10T01:13:14.387Z,2.60
2018-01-10T01:15:41.512Z,2.60
2018-01-10T01:18:08.464Z,2.60
2018-01-10T01:20:35.412Z,2.50
2018-01-10T01:23:02.368Z,2.40
2018-01-10T01:25:31.235Z,2.40
2018-01-10T01:27:58.191Z,2.60
2018-01-10T01:30:25.132Z,2.60
2018-01-10T01:32:52.085Z,2.50
2018-01-10T01:35:19.033Z,2.50
2018-01-10T01:37:45.988Z,2.50
2018-01-10T01:40:12.976Z,2.60
2018-01-10T01:42:39.924Z,3.00
2018-01-10T01:45:07.624Z,2.80
2018-01-10T01:47:34.577Z,2.80
2018-01-10T01:50:01.524Z,2.60
2018-01-10T01:52:28.485Z,2.70
2018-01-10T01:54:55.556Z,2.70
2018-01-10T01:57:22.516Z,2.80
2018-01-10T01:59:50.224Z,2.80
2018-01-10T02:02:17.174Z,2.80
2018-01-10T02:04:44.108Z,2.70
2018-01-10T02:07:11.061Z,2.70
2018-01-10T02:09:38.005Z,2.60
2018-01-10T02:12:04.952Z,2.60
2018-01-10T02:14:31.892Z,2.70
2018-01-10T02:16:58.874Z,2.70
2018-01-10T02:19:25.805Z,2.70
2018-01-10T02:21:52.747Z,2.70
2018-01-10T02:24:19.687Z,2.70
2018-01-10T02:26:46.621Z,2.60
2018-01-10T02:29:13.576Z,2.60
2018-01-10T02:31:40.513Z,2.70
2018-01-10T02:34:07.460Z,2.70
2018-01-10T02:36:34.404Z,2.70
2018-01-10T02:39:01.346Z,2.70
2018-01-10T02:41:28.304Z,2.60
2018-01-10T02:43:55.273Z,2.60
2018-01-10T02:46:22.226Z,2.50
2018-01-10T02:48:49.932Z,2.60
2018-01-10T02:51:16.884Z,2.60
2018-01-10T02:53:44.667Z,2.50
2018-01-10T02:56:11.632Z,2.40
2018-01-10T02:58:38.574Z,2.50
2018-01-10T03:01:05.536Z,2.50
2018-01-10T03:03:33.241Z,2.50
2018-01-10T03:06:00.192Z,2.50
2018-01-10T03:08:27.134Z,2.50
2018-01-10T03:10:54.092Z,2.40
2018-01-10T03:13:21.025Z,2.40
2018-01-10T03:15:47.964Z,2.50
2018-01-10T03:18:14.904Z,2.50
2018-01-10T03:20:41.888Z,2.60
2018-01-10T03:23:08.857Z,2.70
2018-01-10T03:25:36.572Z,2.80
2018-01-10T03:28:03.505Z,2.80
2018-01-10T03:30:30.459Z,2.80
2018-01-10T03:32:57.388Z,2.80
2018-01-10T03:35:24.341Z,2.80
2018-01-10T03:37:51.277Z,2.90
2018-01-10T03:40:18.228Z,2.80
2018-01-10T03:42:45.165Z,2.70
2018-01-10T03:45:12.124Z,2.70
2018-01-10T03:47:39.052Z,2.70
2018-01-10T03:50:06.010Z,2.70
2018-01-10T03:52:32.945Z,2.70
2018-01-10T03:54:59.897Z,2.80
2018-01-10T03:57:26.850Z,2.90
2018-01-10T03:59:53.814Z,2.90
2018-01-10T04:02:20.748Z,2.90
2018-01-10T04:04:47.712Z,2.90
2018-01-10T04:07:14.644Z,2.90
2018-01-10T04:09:41.595Z,2.90
2018-01-10T04:12:08.523Z,2.80
2018-01-10T04:14:35.472Z,2.80
2018-01-10T04:17:02.413Z,3.00
2018-01-10T04:19:29.369Z,2.90
2018-01-10T04:21:56.304Z,2.90
2018-01-10T04:24:23.262Z,2.80
2018-01-10T04:26:50.209Z,2.70
2018-01-10T04:29:17.160Z,2.80
2018-01-10T04:31:44.104Z,2.90
2018-01-10T04:34:11.060Z,2.80
2018-01-10T04:36:38.002Z,2.90
2018-01-10T04:39:04.955Z,2.90
2018-01-10T04:41:31.893Z,2.80
2018-01-10T04:43:58.844Z,2.70
2018-01-10T04:46:25.788Z,2.60
2018-01-10T04:48:52.751Z,2.50
2018-01-10T04:51:20.449Z,2.50
2018-01-10T04:53:47.404Z,2.50
2018-01-10T04:56:14.348Z,2.50
2018-01-10T04:58:41.290Z,2.50
2018-01-10T05:01:08.213Z,2.60
2018-01-10T05:03:35.120Z,2.60
2018-01-10T05:06:02.041Z,2.50
2018-01-10T05:08:28.948Z,2.50
2018-01-10T05:10:55.873Z,2.50
2018-01-10T05:13:22.780Z,2.50
2018-01-10T05:15:49.739Z,2.50
2018-01-10T05:18:17.405Z,2.50
2018-01-10T05:20:44.322Z,2.40
2018-01-10T05:23:11.239Z,2.50
2018-01-10T05:25:38.235Z,2.60
2018-01-10T05:28:05.143Z,2.70
2018-01-10T05:30:32.084Z,2.70
2018-01-10T05:32:59.008Z,2.70
2018-01-10T05:35:25.930Z,2.70
2018-01-10T05:37:52.833Z,2.90
2018-01-10T05:40:19.752Z,2.90
2018-01-10T05:42:46.667Z,2.80
2018-01-10T05:45:13.597Z,2.90
2018-01-10T05:47:40.511Z,2.90
2018-01-10T05:50:07.452Z,3.00
2018-01-10T05:52:34.381Z,3.00
2018-01-10T05:55:01.338Z,3.10
2018-01-10T05:57:28.248Z,3.20
2018-01-10T05:59:55.940Z,3.30
2018-01-10T06:02:22.848Z,3.30
2018-01-10T06:04:50.541Z,3.30
2018-01-10T06:07:17.454Z,3.30
2018-01-10T06:09:44.382Z,3.40
2018-01-10T06:12:11.294Z,3.40
2018-01-10T06:14:38.220Z,3.50
2018-01-10T06:17:05.125Z,3.70
2018-01-10T06:19:32.055Z,3.60
2018-01-10T06:21:58.964Z,3.60
2018-01-10T06:24:25.889Z,3.70
2018-01-10T06:26:52.794Z,3.70
2018-01-10T06:29:19.725Z,3.80
2018-01-10T06:31:46.628Z,3.80
2018-01-10T06:34:13.548Z,3.70
2018-01-10T06:36:41.220Z,3.50
2018-01-10T06:39:08.149Z,3.50
2018-01-10T06:41:35.828Z,3.50
2018-01-10T06:44:02.777Z,3.50
2018-01-10T06:46:29.681Z,3.50
2018-01-10T06:48:56.612Z,3.50
2018-01-10T06:51:23.526Z,3.50
2018-01-10T06:53:50.452Z,3.50
2018-01-10T06:56:17.364Z,3.40
2018-01-10T06:58:44.292Z,3.40
2018-01-10T07:01:11.206Z,3.40
2018-01-10T07:03:38.141Z,3.30
2018-01-10T07:06:05.044Z,3.40
2018-01-10T07:08:31.971Z,3.40
2018-01-10T07:10:58.885Z,3.40
2018-01-10T07:13:25.810Z,3.40
2018-01-10T07:15:52.737Z,3.30
2018-01-10T07:18:20.427Z,3.30
2018-01-10T07:20:48.353Z,3.30
2018-01-10T07:23:16.048Z,3.30
2018-01-10T07:25:42.956Z,3.30
2018-01-10T07:28:09.880Z,3.40
2018-01-10T07:30:36.798Z,3.40
2018-01-10T07:33:03.720Z,3.40
2018-01-10T07:35:31.541Z,3.50
2018-01-10T07:37:58.461Z,3.40
2018-01-10T07:40:25.371Z,3.50
2018-01-10T07:42:52.290Z,3.50
2018-01-10T07:45:19.200Z,3.50
2018-01-10T07:47:46.124Z,3.50
2018-01-10T07:50:13.032Z,3.60
2018-01-10T07:52:39.971Z,3.60
2018-01-10T07:55:07.670Z,3.70
2018-01-10T07:57:34.615Z,3.70
2018-01-10T08:00:01.526Z,3.90
2018-01-10T08:02:29.218Z,3.90
2018-01-10T08:04:56.128Z,3.90
2018-01-10T08:07:23.067Z,3.90
2018-01-10T08:09:49.991Z,3.90
2018-01-10T08:12:16.913Z,3.90
2018-01-10T08:14:43.828Z,3.80
2018-01-10T08:17:11.693Z,4.00
2018-01-10T08:19:38.605Z,4.00
2018-01-10T08:22:05.536Z,4.00
2018-01-10T08:24:32.441Z,4.10
2018-01-10T08:26:59.370Z,4.10
2018-01-10T08:29:26.280Z,4.00
2018-01-10T08:31:53.205Z,3.90
2018-01-10T08:34:20.112Z,4.10
2018-01-10T08:36:49.001Z,4.10
2018-01-10T08:39:15.912Z,4.20
2018-01-10T08:41:42.835Z,4.30
2018-01-10T08:44:09.739Z,4.30
2018-01-10T08:46:36.671Z,4.30
2018-01-10T08:49:04.346Z,4.60
2018-01-10T08:51:31.282Z,4.60
2018-01-10T08:53:58.187Z,4.60
2018-01-10T08:56:25.121Z,4.30
2018-01-10T08:58:52.028Z,4.20
2018-01-10T09:01:18.956Z,4.30
2018-01-10T09:03:45.869Z,4.50
2018-01-10T09:06:12.792Z,4.60
2018-01-10T09:08:39.700Z,4.60
2018-01-10T09:11:06.617Z,4.60
2018-01-10T09:13:34.289Z,4.60
2018-01-10T09:16:01.994Z,4.50
2018-01-10T09:18:28.901Z,4.60
2018-01-10T09:20:56.597Z,4.70
2018-01-10T09:23:23.516Z,4.70
2018-01-10T09:25:50.449Z,4.80
2018-01-10T09:28:18.148Z,5.10
2018-01-10T09:30:45.092Z,5.10
2018-01-10T09:33:11.991Z,5.20
2018-01-10T09:35:39.667Z,5.50
2018-01-10T09:38:06.596Z,5.50
2018-01-10T09:40:34.274Z,5.80
2018-01-10T09:43:01.193Z,5.80
2018-01-10T09:45:28.109Z,5.90
2018-01-10T09:47:55.821Z,5.90
2018-01-10T09:50:22.724Z,5.90
2018-01-10T09:52:50.412Z,5.70
2018-01-10T09:55:17.325Z,5.80
2018-01-10T09:57:44.473Z,5.80
2018-01-10T10:00:12.164Z,6.20
2018-01-10T10:02:39.084Z,6.20
2018-01-10T10:05:06.753Z,6.20
2018-01-10T10:07:33.680Z,6.20
2018-01-10T10:10:00.608Z,6.20
2018-01-10T10:12:27.536Z,6.20
2018-01-10T10:14:54.440Z,6.10
2018-01-10T10:17:21.366Z,6.10
2018-01-10T10:19:48.281Z,6.20
2018-01-10T10:22:15.208Z,6.30
2018-01-10T10:24:42.117Z,6.20
2018-01-10T10:27:09.041Z,6.00
2018-01-10T10:29:36.717Z,6.00
2018-01-10T10:32:03.649Z,6.00
2018-01-10T10:34:30.567Z,6.20
2018-01-10T10:36:57.501Z,6.50
2018-01-10T10:39:24.407Z,6.60
2018-01-10T10:41:51.327Z,6.90
2018-01-10T10:44:18.250Z,7.00
2018-01-10T10:46:45.186Z,7.30
2018-01-10T10:49:12.107Z,7.10
2018-01-10T10:51:39.041Z,7.00
2018-01-10T10:54:05.957Z,6.90
2018-01-10T10:56:32.880Z,6.80
2018-01-10T10:59:00.563Z,6.60
2018-01-10T11:01:27.492Z,6.50
2018-01-10T11:03:55.176Z,6.40
2018-01-10T11:06:22.105Z,6.30
2018-01-10T11:08:49.025Z,6.40
2018-01-10T11:11:15.948Z,6.50
2018-01-10T11:13:42.852Z,6.30
2018-01-10T11:16:09.784Z,6.30
2018-01-10T11:18:36.700Z,6.20
2018-01-10T11:21:03.620Z,6.10
2018-01-10T11:23:30.549Z,5.90
2018-01-10T11:25:57.475Z,5.70
2018-01-10T11:28:26.252Z,5.40
2018-01-10T11:30:53.165Z,5.50
2018-01-10T11:33:20.111Z,5.60
2018-01-10T11:35:47.020Z,5.40
2018-01-10T11:38:13.946Z,5.40
2018-01-10T11:40:40.860Z,5.50
2018-01-10T11:43:07.792Z,5.30
2018-01-10T11:45:35.480Z,5.20
2018-01-10T11:48:02.416Z,5.20
2018-01-10T11:50:29.334Z,5.20
2018-01-10T11:52:57.028Z,5.20
2018-01-10T11:55:23.931Z,5.20
2018-01-10T11:57:50.859Z,5.30
2018-01-10T12:00:17.794Z,5.20
2018-01-10T12:02:44.743Z,5.30
2018-01-10T12:05:11.656Z,5.30
2018-01-10T12:07:38.571Z,5.40
2018-01-10T12:10:07.245Z,5.50
2018-01-10T12:12:34.937Z,5.60
2018-01-10T12:15:01.852Z,5.50
2018-01-10T12:17:29.537Z,5.60
2018-01-10T12:19:56.451Z,5.60
2018-01-10T12:22:23.376Z,5.70
2018-01-10T12:24:50.292Z,5.80
2018-01-10T12:27:17.268Z,5.90
2018-01-10T12:29:44.176Z,6.10
2018-01-10T12:32:11.104Z,6.30
2018-01-10T12:34:38.023Z,6.20
2018-01-10T12:37:05.736Z,6.10
2018-01-10T12:39:32.655Z,6.10
2018-01-10T12:41:59.584Z,6.30
2018-01-10T12:44:27.282Z,6.20
2018-01-10T12:46:54.192Z,6.20
2018-01-10T12:49:22.890Z,6.00
2018-01-10T12:51:49.804Z,6.00
2018-01-10T12:54:18.509Z,5.90
2018-01-10T12:56:46.196Z,5.70
2018-01-10T12:59:13.128Z,5.70
2018-01-10T13:01:40.066Z,5.80
2018-01-10T13:04:08.790Z,5.70
2018-01-10T13:06:35.699Z,5.70
2018-01-10T13:09:02.627Z,5.70
2018-01-10T13:11:29.552Z,5.80
2018-01-10T13:13:56.478Z,5.70
2018-01-10T13:16:24.368Z,5.50
2018-01-10T13:18:51.289Z,5.40
2018-01-10T13:21:18.213Z,5.50
2018-01-10T13:23:45.165Z,5.50
2018-01-10T13:26:12.124Z,5.30
2018-01-10T13:28:39.065Z,5.20
2018-01-10T13:31:05.984Z,5.20
2018-01-10T13:33:32.928Z,5.20
2018-01-10T13:35:59.841Z,5.40
2018-01-10T13:38:27.540Z,5.60
2018-01-10T13:40:54.449Z,5.60
2018-01-10T13:43:22.136Z,5.60
2018-01-10T13:45:49.038Z,5.50
2018-01-10T13:48:16.746Z,5.50
2018-01-10T13:50:43.682Z,5.50
2018-01-10T13:53:10.606Z,5.50
2018-01-10T13:55:37.508Z,5.60
2018-01-10T13:58:04.446Z,5.70
2018-01-10T14:00:31.349Z,5.60
2018-01-10T14:02:58.272Z,5.60
2018-01-10T14:05:25.950Z,5.50
2018-01-10T14:07:52.869Z,5.50
2018-01-10T14:10:19.796Z,5.40
2018-01-10T14:12:46.733Z,5.30
2018-01-10T14:15:13.636Z,5.20
2018-01-10T14:17:41.503Z,5.20
2018-01-10T14:20:08.413Z,5.10
2018-01-10T14:22:36.108Z,5.00
2018-01-10T14:25:03.027Z,5.00
2018-01-10T14:27:30.734Z,4.90
2018-01-10T14:29:57.649Z,4.90
2018-01-10T14:32:26.544Z,4.90
2018-01-10T14:34:53.492Z,4.90
2018-01-10T14:37:20.431Z,5.00
2018-01-10T14:39:47.357Z,4.90
2018-01-10T14:42:14.280Z,4.90
2018-01-10T14:44:41.188Z,4.80
2018-01-10T14:47:08.102Z,4.80
2018-01-10T14:49:35.042Z,4.90
2018-01-10T14:52:01.968Z,4.90
2018-01-10T14:54:28.885Z,4.80
2018-01-10T14:56:55.969Z,4.80
2018-01-10T14:59:23.654Z,4.60
2018-01-10T15:01:50.617Z,4.70
2018-01-10T15:04:18.578Z,4.70
2018-01-10T15:06:45.514Z,4.80
2018-01-10T15:09:12.460Z,4.70
2018-01-10T15:11:39.393Z,4.80
2018-01-10T15:14:06.366Z,4.70
2018-01-10T15:16:33.272Z,4.60
2018-01-10T15:19:01.204Z,4.60
2018-01-10T15:21:28.122Z,4.50
2018-01-10T15:23:55.064Z,4.50
2018-01-10T15:26:21.996Z,4.40
2018-01-10T15:28:48.920Z,4.40
2018-01-10T15:31:16.772Z,4.40
2018-01-10T15:33:43.689Z,4.40
2018-01-10T15:36:10.596Z,4.40
2018-01-10T15:38:37.579Z,4.60
2018-01-10T15:41:04.526Z,4.50
2018-01-10T15:43:31.432Z,4.40
2018-01-10T15:45:58.373Z,4.40
2018-01-10T15:48:25.304Z,4.50
2018-01-10T15:50:52.221Z,4.50
2018-01-10T15:53:19.178Z,4.40
2018-01-10T15:55:46.110Z,4.60
2018-01-10T15:58:13.949Z,4.50
2018-01-10T16:00:44.621Z,4.60
2018-01-10T16:03:11.532Z,4.60
2018-01-10T16:05:38.470Z,4.60
2018-01-10T16:08:06.176Z,4.60
2018-01-10T16:10:33.147Z,4.60
2018-01-10T16:13:01.064Z,4.80
2018-01-10T16:15:28.004Z,4.80
2018-01-10T16:17:54.908Z,4.80
2018-01-10T16:20:21.853Z,4.80
2018-01-10T16:22:56.054Z,4.80
2018-01-10T16:25:23.025Z,4.70
2018-01-10T16:27:49.967Z,4.70
2018-01-10T16:30:16.944Z,4.70
2018-01-10T16:32:43.892Z,4.70
2018-01-10T16:35:10.828Z,4.80
2018-01-10T16:37:38.708Z,4.80
2018-01-10T16:40:05.645Z,4.70
2018-01-10T16:42:34.497Z,4.80
2018-01-10T16:45:01.474Z,4.70
2018-01-10T16:47:28.448Z,4.70
2018-01-10T16:49:55.384Z,4.60
2018-01-10T16:52:22.321Z,4.50
2018-01-10T16:54:49.267Z,4.30
2018-01-10T16:57:16.222Z,4.50
2018-01-10T16:59:43.160Z,4.30
2018-01-10T17:02:10.651Z,4.20
2018-01-10T17:04:37.603Z,4.20
2018-01-10T17:07:04.547Z,4.10
2018-01-10T17:09:31.680Z,4.00
2018-01-10T17:11:58.615Z,4.10
2018-01-10T17:14:25.527Z,4.00
2018-01-10T17:16:52.445Z,4.10
2018-01-10T17:19:19.402Z,4.00
2018-01-10T17:21:47.117Z,4.10
2018-01-10T17:24:14.040Z,4.10
2018-01-10T17:26:40.969Z,4.20
2018-01-10T17:29:07.901Z,4.40
2018-01-10T17:31:35.608Z,4.40
2018-01-10T17:34:02.532Z,4.40
2018-01-10T17:36:29.452Z,4.40
2018-01-10T17:38:57.125Z,4.60
2018-01-10T17:41:24.056Z,4.60
2018-01-10T17:43:56.528Z,4.80
2018-01-10T17:46:24.268Z,5.00
2018-01-10T17:48:53.096Z,5.00
2018-01-10T17:51:20.101Z,5.00
2018-01-10T17:53:47.006Z,4.80
2018-01-10T17:56:14.090Z,4.70
2018-01-10T17:58:41.038Z,4.70
2018-01-10T18:01:07.966Z,4.80
2018-01-10T18:03:34.901Z,4.80
2018-01-10T18:06:01.829Z,4.70
2018-01-10T18:08:29.525Z,4.80
2018-01-10T18:10:56.441Z,4.70
2018-01-10T18:13:24.150Z,4.60
2018-01-10T18:15:51.168Z,4.60
2018-01-10T18:18:18.102Z,4.90
2018-01-10T18:20:45.789Z,4.80
2018-01-10T18:23:12.710Z,4.70
2018-01-10T18:25:40.424Z,4.60
2018-01-10T18:28:07.329Z,4.60
2018-01-10T18:30:34.268Z,4.50
2018-01-10T18:33:01.168Z,4.50
2018-01-10T18:35:28.110Z,4.60
2018-01-10T18:37:55.021Z,4.60
2018-01-10T18:40:21.947Z,4.70
2018-01-10T18:42:48.859Z,4.80
2018-01-10T18:45:15.783Z,4.90
2018-01-10T18:47:42.689Z,5.00
2018-01-10T18:50:09.651Z,4.90
2018-01-10T18:52:37.472Z,4.90
2018-01-10T18:55:05.174Z,5.20
2018-01-10T18:57:32.098Z,5.20
2018-01-10T18:59:59.040Z,5.10
2018-01-10T19:02:25.949Z,5.10
2018-01-10T19:04:52.881Z,5.00
2018-01-10T19:07:19.791Z,4.90
2018-01-10T19:09:46.724Z,5.00
2018-01-10T19:12:13.652Z,5.00
2018-01-10T19:14:40.577Z,5.00
2018-01-10T19:17:07.502Z,5.00
2018-01-10T19:19:34.424Z,5.00
2018-01-10T19:22:01.344Z,4.90
2018-01-10T19:24:28.322Z,4.90
2018-01-10T19:26:55.252Z,5.00
2018-01-10T19:29:27.098Z,4.90
2018-01-10T19:31:54.012Z,5.10
2018-01-10T19:34:20.995Z,5.10
2018-01-10T19:36:51.337Z,5.00
2018-01-10T19:39:18.272Z,5.00
2018-01-10T19:41:45.201Z,4.90
2018-01-10T19:44:12.140Z,4.90
2018-01-10T19:46:39.057Z,4.90
2018-01-10T19:49:06.009Z,4.80
2018-01-10T19:51:33.951Z,4.80
2018-01-10T19:54:00.892Z,4.70
2018-01-10T19:56:28.560Z,4.70
2018-01-10T19:58:57.274Z,4.80
2018-01-10T20:01:24.216Z,4.80
2018-01-10T20:03:51.146Z,4.80
2018-01-10T20:06:18.078Z,5.00
2018-01-10T20:08:45.042Z,5.10
2018-01-10T20:11:11.979Z,5.10
2018-01-10T20:13:38.905Z,5.00
2018-01-10T20:16:06.610Z,4.90
2018-01-10T20:18:33.553Z,4.90
2018-01-10T20:21:00.496Z,5.10
2018-01-10T20:23:27.432Z,5.00
2018-01-10T20:25:55.373Z,4.90
2018-01-10T20:28:22.301Z,4.80
2018-01-10T20:30:50.165Z,4.90
2018-01-10T20:33:17.121Z,4.90
2018-01-10T20:35:44.035Z,4.90
2018-01-10T20:38:10.977Z,4.80
2018-01-10T20:40:38.889Z,4.60
2018-01-10T20:43:06.901Z,4.50
2018-01-10T20:45:33.904Z,4.40
2018-01-10T20:48:00.833Z,4.30
2018-01-10T20:50:28.541Z,4.30
2018-01-10T20:52:55.467Z,4.10
2018-01-10T20:55:22.447Z,4.20
2018-01-10T20:57:49.372Z,4.20
2018-01-10T21:00:16.301Z,4.30
2018-01-10T21:02:43.227Z,4.30
2018-01-10T21:05:10.922Z,4.40
2018-01-10T21:07:38.915Z,4.40
2018-01-10T21:10:05.884Z,4.40
2018-01-10T21:12:32.816Z,4.30
2018-01-10T21:14:59.757Z,4.40
2018-01-10T21:17:27.695Z,4.40
2018-01-10T21:19:54.665Z,4.40
2018-01-10T21:22:21.627Z,4.30
2018-01-10T21:24:48.544Z,4.40
2018-01-10T21:27:15.501Z,4.40
2018-01-10T21:29:42.429Z,4.40
2018-01-10T21:32:09.389Z,4.40
2018-01-10T21:34:36.317Z,4.40
2018-01-10T21:37:03.249Z,4.50
2018-01-10T21:39:30.160Z,4.40
2018-01-10T21:41:57.869Z,4.50
2018-01-10T21:44:24.782Z,4.50
2018-01-10T21:46:52.092Z,4.50
2018-01-10T21:49:19.044Z,4.50
2018-01-10T21:51:45.977Z,4.40
2018-01-10T21:54:12.894Z,4.50
2018-01-10T21:56:39.816Z,4.40
2018-01-10T21:59:06.729Z,4.40
2018-01-10T22:01:33.661Z,4.40
2018-01-10T22:04:00.570Z,4.30
2018-01-10T22:06:27.528Z,4.30
2018-01-10T22:08:54.456Z,4.20
2018-01-10T22:11:21.390Z,4.20
2018-01-10T22:13:48.308Z,4.20
2018-01-10T22:16:16.006Z,4.20
2018-01-10T22:18:42.917Z,4.20
2018-01-10T22:21:10.610Z,4.30
2018-01-10T22:23:37.540Z,4.40
2018-01-10T22:26:04.485Z,4.50
2018-01-10T22:28:31.396Z,4.70
2018-01-10T22:30:58.330Z,4.70
2018-01-10T22:33:25.258Z,4.60
2018-01-10T22:35:52.199Z,4.50
2018-01-10T22:38:19.104Z,4.40
2018-01-10T22:40:46.033Z,4.40
2018-01-10T22:43:12.952Z,4.30
2018-01-10T22:45:39.877Z,4.40
2018-01-10T22:48:07.714Z,4.40
2018-01-10T22:50:34.645Z,4.40
2018-01-10T22:53:01.556Z,4.30
2018-01-10T22:55:28.492Z,4.20
2018-01-10T22:57:55.396Z,4.30
2018-01-10T23:00:26.330Z,4.50
2018-01-10T23:02:53.260Z,4.30
2018-01-10T23:05:20.169Z,4.20
2018-01-10T23:07:47.106Z,4.20
2018-01-10T23:10:14.056Z,4.20
2018-01-10T23:12:40.977Z,4.20
2018-01-10T23:15:07.896Z,4.20
2018-01-10T23:17:34.813Z,4.10
2018-01-10T23:20:02.509Z,4.20
2018-01-10T23:22:29.424Z,4.20
2018-01-10T23:24:57.119Z,4.60
2018-01-10T23:27:24.045Z,4.60
2018-01-10T23:29:50.984Z,4.50
2018-01-10T23:32:17.937Z,4.40
2018-01-10T23:34:44.858Z,4.40
2018-01-10T23:37:12.537Z,4.30
2018-01-10T23:39:39.469Z,4.30
2018-01-10T23:42:07.145Z,4.30
2018-01-10T23:44:34.084Z,4.30
2018-01-10T23:47:01.009Z,4.30
2018-01-10T23:49:28.699Z,4.40
2018-01-10T23:51:55.611Z,4.40
2018-01-10T23:54:22.564Z,4.30
2018-01-10T23:56:50.257Z,4.40
2018-01-10T23:59:17.194Z,4.40
